createdAt,value
2022-07-30T00:01:52.915Z,2.42
2022-07-30T00:04:20.577Z,2.53
2022-07-30T00:06:47.581Z,2.50
2022-07-30T00:09:14.419Z,2.40
2022-07-30T00:11:41.557Z,3.38
2022-07-30T00:14:09.088Z,2.70
2022-07-30T00:16:37.036Z,2.47
2022-07-30T00:19:04.132Z,2.78
2022-07-30T00:21:38.491Z,2.50
2022-07-30T00:24:08.737Z,2.90
2022-07-30T00:26:35.715Z,2.60
2022-07-30T00:29:03.228Z,2.75
2022-07-30T00:31:30.220Z,2.83
2022-07-30T00:33:57.364Z,2.90
2022-07-30T00:36:24.287Z,2.50
2022-07-30T00:38:51.918Z,2.42
2022-07-30T00:41:18.748Z,2.65
2022-07-30T00:43:45.558Z,2.65
2022-07-30T00:46:14.895Z,3.35
2022-07-30T00:48:43.012Z,2.85
2022-07-30T00:51:10.280Z,2.78
2022-07-30T00:53:37.246Z,2.67
2022-07-30T00:56:04.937Z,2.63
2022-07-30T00:58:31.929Z,3.47
2022-07-30T01:00:59.240Z,3.00
2022-07-30T01:03:26.174Z,2.80
2022-07-30T01:05:53.054Z,2.72
2022-07-30T01:08:19.946Z,1.95
2022-07-30T01:10:46.946Z,2.50
2022-07-30T01:13:13.853Z,2.97
2022-07-30T01:15:41.545Z,2.53
2022-07-30T01:18:11.662Z,2.63
2022-07-30T01:20:48.620Z,2.78
2022-07-30T01:23:24.166Z,2.75
2022-07-30T01:25:58.845Z,3.15
2022-07-30T01:28:42.804Z,2.63
2022-07-30T01:31:13.076Z,2.70
2022-07-30T01:33:45.078Z,2.63
2022-07-30T01:36:14.940Z,2.67
2022-07-30T01:38:45.540Z,2.75
2022-07-30T01:41:15.395Z,2.80
2022-07-30T01:43:44.362Z,2.67
2022-07-30T01:46:14.057Z,2.45
2022-07-30T01:48:44.314Z,3.30
2022-07-30T01:51:13.214Z,2.45
2022-07-30T01:53:48.160Z,2.70
2022-07-30T01:56:24.548Z,2.80
2022-07-30T02:01:24.844Z,2.90
2022-07-30T02:03:58.223Z,2.20
2022-07-30T02:06:37.395Z,2.58
2022-07-30T02:09:11.089Z,2.17
2022-07-30T02:12:05.126Z,2.78
2022-07-30T02:15:08.448Z,2.55
2022-07-30T02:17:59.194Z,2.95
2022-07-30T02:20:29.411Z,2.83
2022-07-30T02:23:02.430Z,2.63
2022-07-30T02:25:33.438Z,2.70
2022-07-30T02:28:08.634Z,2.25
2022-07-30T02:30:40.756Z,2.70
2022-07-30T02:33:12.840Z,2.90
2022-07-30T02:35:41.306Z,2.38
2022-07-30T02:38:11.236Z,2.72
2022-07-30T02:40:42.102Z,2.72
2022-07-30T02:43:10.124Z,2.65
2022-07-30T02:45:38.198Z,2.75
2022-07-30T02:48:08.017Z,3.10
2022-07-30T02:50:39.884Z,2.63
2022-07-30T02:53:11.048Z,3.03
2022-07-30T02:55:42.698Z,3.97
2022-07-30T02:58:11.623Z,2.80
2022-07-30T03:00:39.322Z,2.80
2022-07-30T03:03:07.783Z,2.78
2022-07-30T03:05:39.320Z,3.15
2022-07-30T03:08:08.575Z,2.65
2022-07-30T03:10:37.358Z,2.47
2022-07-30T03:13:09.711Z,2.58
2022-07-30T03:15:42.085Z,2.70
2022-07-30T03:18:13.499Z,2.75
2022-07-30T03:20:41.098Z,2.70
2022-07-30T03:23:11.482Z,2.85
2022-07-30T03:25:40.255Z,2.70
2022-07-30T03:28:08.624Z,3.10
2022-07-30T03:30:36.784Z,3.10
2022-07-30T03:33:05.495Z,2.58
2022-07-30T03:35:33.242Z,2.70
2022-07-30T03:38:02.022Z,2.97
2022-07-30T03:40:30.039Z,2.60
2022-07-30T03:42:57.437Z,2.67
2022-07-30T03:45:26.616Z,2.53
2022-07-30T03:48:00.074Z,2.67
2022-07-30T03:50:28.026Z,2.80
2022-07-30T03:52:55.754Z,2.13
2022-07-30T03:55:23.327Z,2.22
2022-07-30T03:57:51.383Z,2.25
2022-07-30T04:00:24.826Z,2.42
2022-07-30T04:02:53.670Z,3.13
2022-07-30T04:05:41.692Z,2.28
2022-07-30T04:08:11.522Z,2.70
2022-07-30T04:10:39.335Z,2.10
2022-07-30T04:13:29.206Z,2.50
2022-07-30T04:16:41.219Z,2.35
2022-07-30T04:19:15.648Z,2.60
2022-07-30T04:24:11.806Z,1.98
2022-07-30T04:26:39.708Z,3.70
2022-07-30T04:29:16.111Z,2.60
2022-07-30T04:31:45.922Z,2.05
2022-07-30T04:34:53.719Z,2.30
2022-07-30T04:37:42.272Z,2.42
2022-07-30T04:40:10.074Z,2.50
2022-07-30T04:42:37.312Z,2.63
2022-07-30T04:45:07.688Z,1.88
2022-07-30T04:47:48.257Z,1.75
2022-07-30T04:50:51.611Z,1.75
2022-07-30T04:53:22.424Z,2.35
2022-07-30T04:55:57.146Z,2.38
2022-07-30T04:58:28.937Z,2.20
2022-07-30T05:00:59.186Z,2.25
2022-07-30T05:03:31.800Z,2.28
2022-07-30T05:06:01.852Z,1.88
2022-07-30T05:08:32.508Z,2.00
2022-07-30T05:11:03.374Z,1.83
2022-07-30T05:13:34.459Z,1.98
2022-07-30T05:16:06.099Z,2.03
2022-07-30T05:18:33.087Z,1.50
2022-07-30T05:21:00.331Z,1.80
2022-07-30T05:23:34.966Z,1.77
2022-07-30T05:26:12.216Z,1.60
2022-07-30T05:28:45.026Z,1.83
2022-07-30T05:31:19.560Z,1.45
2022-07-30T05:33:54.250Z,1.60
2022-07-30T05:36:25.743Z,1.70
2022-07-30T05:38:53.799Z,2.00
2022-07-30T05:41:54.269Z,2.20
2022-07-30T05:44:28.124Z,1.63
2022-07-30T05:46:55.465Z,1.83
2022-07-30T05:49:23.426Z,1.70
2022-07-30T05:51:52.277Z,1.65
2022-07-30T05:54:19.378Z,1.75
2022-07-30T05:57:05.019Z,1.65
2022-07-30T05:59:33.658Z,1.80
2022-07-30T06:02:11.205Z,2.38
2022-07-30T06:04:57.111Z,1.30
2022-07-30T06:07:24.696Z,1.80
2022-07-30T06:09:54.049Z,1.85
2022-07-30T06:12:21.161Z,1.50
2022-07-30T06:14:48.893Z,1.80
2022-07-30T06:17:22.897Z,1.53
2022-07-30T06:20:09.400Z,1.73
2022-07-30T06:22:50.260Z,1.40
2022-07-30T06:25:25.025Z,1.77
2022-07-30T06:27:51.936Z,1.90
2022-07-30T06:30:19.417Z,1.80
2022-07-30T06:32:57.157Z,1.58
2022-07-30T06:35:24.677Z,1.60
2022-07-30T06:38:06.437Z,1.77
2022-07-30T06:40:40.422Z,1.67
2022-07-30T06:43:19.248Z,2.15
2022-07-30T06:46:20.626Z,1.85
2022-07-30T06:48:50.272Z,1.52
2022-07-30T06:51:17.398Z,1.52
2022-07-30T06:54:14.871Z,1.48
2022-07-30T06:57:20.595Z,1.65
2022-07-30T06:59:56.224Z,1.55
2022-07-30T07:02:39.472Z,1.80
2022-07-30T07:05:16.558Z,1.60
2022-07-30T07:07:58.188Z,1.10
2022-07-30T07:10:32.927Z,1.55
2022-07-30T07:13:29.438Z,1.38
2022-07-30T07:15:58.187Z,1.80
2022-07-30T07:18:27.389Z,1.23
2022-07-30T07:21:02.626Z,1.42
2022-07-30T07:23:39.872Z,1.23
2022-07-30T07:26:17.388Z,1.98
2022-07-30T07:28:45.163Z,1.35
2022-07-30T07:32:05.676Z,2.15
2022-07-30T07:34:02.457Z,1.30
2022-07-30T07:36:30.170Z,1.40
2022-07-30T07:38:57.635Z,1.10
2022-07-30T07:41:24.977Z,1.50
2022-07-30T07:43:52.011Z,1.17
2022-07-30T07:46:33.911Z,1.42
2022-07-30T07:49:02.985Z,1.25
2022-07-30T07:51:48.083Z,1.50
2022-07-30T07:54:21.988Z,1.30
2022-07-30T07:56:52.982Z,1.58
2022-07-30T07:59:23.923Z,1.40
2022-07-30T08:02:00.042Z,1.70
2022-07-30T08:04:57.052Z,1.58
2022-07-30T08:07:45.643Z,1.60
2022-07-30T08:10:31.811Z,1.20
2022-07-30T08:13:47.990Z,1.45
2022-07-30T08:16:23.848Z,1.48
2022-07-30T08:19:09.215Z,1.17
2022-07-30T08:21:41.482Z,1.48
2022-07-30T08:24:09.288Z,1.50
2022-07-30T08:26:36.265Z,1.83
2022-07-30T08:29:03.377Z,1.40
2022-07-30T08:31:30.237Z,1.40
2022-07-30T08:33:57.565Z,1.70
2022-07-30T08:36:26.085Z,1.35
2022-07-30T08:38:53.962Z,1.38
2022-07-30T08:41:21.645Z,1.58
2022-07-30T08:43:51.319Z,1.42
2022-07-30T08:46:24.655Z,2.10
2022-07-30T08:49:07.732Z,1.35
2022-07-30T08:51:38.667Z,1.60
2022-07-30T08:54:28.581Z,1.85
2022-07-30T08:56:57.998Z,1.58
2022-07-30T08:59:52.819Z,2.17
2022-07-30T09:02:13.551Z,2.45
2022-07-30T09:04:56.307Z,1.60
2022-07-30T09:07:23.565Z,1.80
2022-07-30T09:09:50.530Z,2.13
2022-07-30T09:12:43.580Z,1.52
2022-07-30T09:15:12.507Z,2.33
2022-07-30T09:18:03.153Z,1.75
2022-07-30T09:20:35.631Z,1.55
2022-07-30T09:23:06.537Z,1.30
2022-07-30T09:25:52.298Z,1.50
2022-07-30T09:28:37.919Z,1.58
2022-07-30T09:31:14.113Z,1.55
2022-07-30T09:33:59.813Z,1.48
2022-07-30T09:36:45.646Z,1.33
2022-07-30T09:39:30.862Z,1.15
2022-07-30T09:42:28.380Z,1.60
2022-07-30T09:45:10.791Z,1.20
2022-07-30T09:47:45.101Z,1.65
2022-07-30T09:50:17.996Z,1.77
2022-07-30T09:53:09.849Z,1.70
2022-07-30T09:55:42.772Z,1.30
2022-07-30T09:58:13.047Z,1.85
2022-07-30T10:00:44.110Z,1.50
2022-07-30T10:03:33.956Z,1.42
2022-07-30T10:06:38.072Z,1.88
2022-07-30T10:09:37.813Z,1.70
2022-07-30T10:12:11.257Z,1.70
2022-07-30T10:14:45.864Z,1.40
2022-07-30T10:17:17.323Z,1.50
2022-07-30T10:19:53.946Z,1.70
2022-07-30T10:22:51.151Z,1.40
2022-07-30T10:25:56.384Z,1.60
2022-07-30T10:28:43.628Z,1.20
2022-07-30T10:31:49.127Z,1.90
2022-07-30T10:33:58.893Z,1.80
2022-07-30T10:36:29.220Z,1.70
2022-07-30T10:38:57.027Z,2.20
2022-07-30T10:42:20.467Z,1.60
2022-07-30T10:45:04.207Z,1.25
2022-07-30T10:47:40.394Z,1.60
2022-07-30T10:50:17.893Z,1.75
2022-07-30T10:52:56.828Z,1.73
2022-07-30T10:55:36.626Z,2.05
2022-07-30T10:58:10.492Z,1.90
2022-07-30T11:01:00.771Z,1.90
2022-07-30T11:03:41.014Z,1.63
2022-07-30T11:06:15.423Z,2.10
2022-07-30T11:08:48.013Z,2.25
2022-07-30T11:12:00.961Z,1.70
2022-07-30T11:14:13.597Z,1.80
2022-07-30T11:16:40.697Z,1.92
2022-07-30T11:19:55.521Z,1.95
2022-07-30T11:22:27.466Z,1.73
2022-07-30T11:24:56.714Z,1.58
2022-07-30T11:27:48.512Z,1.60
2022-07-30T11:30:17.378Z,1.60
2022-07-30T11:32:52.710Z,1.90
2022-07-30T11:35:32.303Z,1.75
2022-07-30T11:38:19.807Z,1.85
2022-07-30T11:40:50.096Z,1.92
2022-07-30T11:43:35.522Z,2.00
2022-07-30T11:46:29.659Z,1.80
2022-07-30T11:49:09.033Z,1.70
2022-07-30T11:51:44.498Z,1.80
2022-07-30T11:54:14.799Z,1.95
2022-07-30T11:57:00.842Z,2.08
2022-07-30T11:59:32.289Z,1.75
2022-07-30T12:02:21.864Z,1.40
2022-07-30T12:04:49.307Z,1.67
2022-07-30T12:07:31.361Z,1.35
2022-07-30T12:10:26.860Z,1.80
2022-07-30T12:13:10.312Z,1.73
2022-07-30T12:15:42.240Z,2.00
2022-07-30T12:18:25.818Z,1.65
2022-07-30T12:20:59.418Z,1.90
2022-07-30T12:23:27.444Z,1.38
2022-07-30T12:25:54.515Z,1.70
2022-07-30T12:28:29.774Z,1.65
2022-07-30T12:30:58.178Z,1.65
2022-07-30T12:33:25.565Z,1.50
2022-07-30T12:35:55.014Z,1.63
2022-07-30T12:38:24.079Z,1.73
2022-07-30T12:40:58.518Z,1.40
2022-07-30T12:43:45.312Z,1.83
2022-07-30T12:46:16.950Z,1.75
2022-07-30T12:48:57.752Z,1.60
2022-07-30T12:51:26.844Z,1.73
2022-07-30T12:53:55.723Z,1.73
2022-07-30T12:56:28.762Z,1.85
2022-07-30T12:58:59.623Z,1.95
2022-07-30T13:01:47.295Z,1.42
2022-07-30T13:04:16.972Z,1.63
2022-07-30T13:06:44.208Z,1.80
2022-07-30T13:09:20.302Z,2.33
2022-07-30T13:11:48.650Z,1.98
2022-07-30T13:14:17.351Z,1.77
2022-07-30T13:16:44.375Z,1.80
2022-07-30T13:19:11.916Z,1.65
2022-07-30T13:21:39.598Z,2.10
2022-07-30T13:24:11.063Z,1.90
2022-07-30T13:26:45.350Z,1.80
2022-07-30T13:29:13.610Z,1.50
2022-07-30T13:31:43.184Z,1.80
2022-07-30T13:34:11.074Z,2.10
2022-07-30T13:36:37.848Z,1.58
2022-07-30T13:39:04.629Z,1.65
2022-07-30T13:41:31.431Z,2.00
2022-07-30T13:43:58.143Z,1.70
2022-07-30T13:46:24.864Z,2.10
2022-07-30T13:48:52.175Z,1.83
2022-07-30T13:51:19.004Z,1.85
2022-07-30T13:53:46.046Z,2.35
2022-07-30T13:56:13.172Z,1.58
2022-07-30T13:58:40.961Z,1.70
2022-07-30T14:01:07.858Z,2.17
2022-07-30T14:03:35.479Z,1.67
2022-07-30T14:06:10.088Z,8.85
2022-07-30T14:08:39.228Z,2.33
2022-07-30T14:11:05.958Z,1.90
2022-07-30T14:13:32.847Z,1.90
2022-07-30T14:15:59.894Z,2.00
2022-07-30T14:18:26.655Z,2.00
2022-07-30T14:20:53.804Z,1.75
2022-07-30T14:23:20.842Z,2.00
2022-07-30T14:25:48.035Z,1.63
2022-07-30T14:28:15.493Z,2.13
2022-07-30T14:30:42.796Z,1.70
2022-07-30T14:33:10.076Z,2.08
2022-07-30T14:35:37.157Z,1.92
2022-07-30T14:38:04.243Z,1.45
2022-07-30T14:40:31.131Z,1.55
2022-07-30T14:42:57.940Z,1.95
2022-07-30T14:45:25.518Z,1.35
2022-07-30T14:47:52.630Z,2.05
2022-07-30T14:50:19.479Z,1.80
2022-07-30T14:52:47.565Z,1.85
2022-07-30T14:55:14.537Z,1.77
2022-07-30T14:57:43.395Z,1.42
2022-07-30T15:00:11.861Z,1.77
2022-07-30T15:02:38.858Z,2.08
2022-07-30T15:05:06.209Z,1.77
2022-07-30T15:07:34.875Z,1.90
2022-07-30T15:10:02.611Z,2.05
2022-07-30T15:12:29.540Z,1.70
2022-07-30T15:14:56.308Z,2.00
2022-07-30T15:17:23.039Z,1.90
2022-07-30T15:19:50.986Z,1.80
2022-07-30T15:22:22.306Z,1.77
2022-07-30T15:24:49.419Z,1.98
2022-07-30T15:27:16.599Z,2.00
2022-07-30T15:29:45.642Z,2.05
2022-07-30T15:32:12.488Z,2.28
2022-07-30T15:34:39.228Z,1.90
2022-07-30T15:37:06.398Z,1.92
2022-07-30T15:39:34.168Z,2.10
2022-07-30T15:42:02.621Z,2.00
2022-07-30T15:44:29.892Z,1.77
2022-07-30T15:46:56.665Z,1.90
2022-07-30T15:49:23.878Z,1.90
2022-07-30T15:51:51.838Z,1.90
2022-07-30T15:54:22.875Z,2.10
2022-07-30T15:56:51.475Z,2.40
2022-07-30T15:59:18.411Z,2.28
2022-07-30T16:01:45.482Z,2.13
2022-07-30T16:04:19.371Z,2.38
2022-07-30T16:09:15.990Z,1.80
2022-07-30T16:11:43.076Z,1.98
2022-07-30T16:14:10.216Z,2.35
2022-07-30T16:16:37.028Z,1.80
2022-07-30T16:19:03.790Z,2.33
2022-07-30T16:21:30.580Z,2.10
2022-07-30T16:23:57.328Z,1.80
2022-07-30T16:26:24.221Z,2.25
2022-07-30T16:28:51.095Z,2.13
2022-07-30T16:31:17.846Z,1.50
2022-07-30T16:33:44.976Z,2.20
2022-07-30T16:36:11.724Z,2.50
2022-07-30T16:38:38.468Z,2.10
2022-07-30T16:41:05.297Z,2.00
2022-07-30T16:43:32.147Z,2.10
2022-07-30T16:46:00.160Z,2.00
2022-07-30T16:48:27.480Z,2.00
2022-07-30T16:50:54.675Z,2.00
2022-07-30T16:53:21.586Z,2.13
2022-07-30T16:55:48.397Z,2.10
2022-07-30T16:58:15.187Z,2.50
2022-07-30T17:00:42.530Z,2.38
2022-07-30T17:03:09.445Z,2.53
2022-07-30T17:05:44.986Z,1.90
2022-07-30T17:08:12.199Z,2.20
2022-07-30T17:10:39.020Z,2.30
2022-07-30T17:13:09.210Z,2.70
2022-07-30T17:15:36.125Z,2.30
2022-07-30T17:18:03.547Z,3.17
2022-07-30T17:20:31.971Z,2.03
2022-07-30T17:22:58.728Z,2.20
2022-07-30T17:25:27.479Z,1.70
2022-07-30T17:27:55.993Z,2.30
2022-07-30T17:30:25.952Z,2.10
2022-07-30T17:32:53.211Z,2.22
2022-07-30T17:35:20.220Z,2.47
2022-07-30T17:37:47.023Z,2.30
2022-07-30T17:40:30.578Z,3.03
2022-07-30T17:43:05.631Z,2.20
2022-07-30T17:45:34.707Z,2.22
2022-07-30T17:48:02.116Z,2.33
2022-07-30T17:50:30.472Z,2.20
2022-07-30T17:52:57.413Z,2.38
2022-07-30T17:55:25.116Z,2.30
2022-07-30T17:57:52.147Z,2.17
2022-07-30T18:00:19.188Z,2.35
2022-07-30T18:02:46.220Z,2.30
2022-07-30T18:05:15.608Z,2.15
2022-07-30T18:07:43.631Z,2.28
2022-07-30T18:10:11.365Z,2.42
2022-07-30T18:12:38.573Z,2.13
2022-07-30T18:15:06.480Z,2.33
2022-07-30T18:17:33.207Z,2.40
2022-07-30T18:20:00.056Z,2.20
2022-07-30T18:22:29.055Z,2.85
2022-07-30T18:24:57.427Z,2.65
2022-07-30T18:27:24.487Z,4.00
2022-07-30T18:29:51.594Z,3.55
2022-07-30T18:32:18.400Z,2.58
2022-07-30T18:34:45.265Z,2.72
2022-07-30T18:37:11.975Z,3.95
2022-07-30T18:39:38.945Z,3.45
2022-07-30T18:42:06.732Z,3.17
2022-07-30T18:44:34.100Z,3.60
2022-07-30T18:47:00.999Z,3.88
2022-07-30T18:49:36.956Z,3.50
2022-07-30T18:52:06.252Z,3.78
2022-07-30T18:54:33.632Z,3.40
2022-07-30T18:57:00.785Z,3.17
2022-07-30T18:59:27.593Z,3.00
2022-07-30T19:01:54.616Z,3.33
2022-07-30T19:04:21.717Z,2.90
2022-07-30T19:06:48.699Z,3.13
2022-07-30T19:09:17.901Z,3.38
2022-07-30T19:11:46.400Z,2.92
2022-07-30T19:14:14.438Z,3.55
2022-07-30T19:16:42.947Z,3.20
2022-07-30T19:19:12.866Z,3.00
2022-07-30T19:21:42.940Z,3.10
2022-07-30T19:24:10.226Z,3.10
2022-07-30T19:26:39.390Z,3.85
2022-07-30T19:29:08.041Z,2.85
2022-07-30T19:31:35.789Z,2.85
2022-07-30T19:34:02.862Z,3.08
2022-07-30T19:36:30.421Z,3.47
2022-07-30T19:39:06.826Z,4.07
2022-07-30T19:41:42.716Z,3.38
2022-07-30T19:44:10.480Z,3.20
2022-07-30T19:46:37.651Z,3.17
2022-07-30T19:52:22.942Z,3.28
2022-07-30T19:54:49.226Z,2.88
2022-07-30T19:57:20.583Z,2.90
2022-07-30T20:00:00.137Z,3.00
2022-07-30T20:02:39.489Z,2.80
2022-07-30T20:05:11.051Z,2.47
2022-07-30T20:07:39.866Z,3.10
2022-07-30T20:10:08.759Z,2.83
2022-07-30T20:12:35.695Z,3.03
2022-07-30T20:15:02.953Z,3.17
2022-07-30T20:17:30.480Z,3.17
2022-07-30T20:20:02.145Z,2.38
2022-07-30T20:22:29.558Z,2.90
2022-07-30T20:24:57.023Z,2.80
2022-07-30T20:27:35.922Z,3.03
2022-07-30T20:30:05.772Z,2.83
2022-07-30T20:32:32.720Z,3.05
2022-07-30T20:34:59.699Z,3.10
2022-07-30T20:37:27.595Z,2.97
2022-07-30T20:39:55.862Z,3.35
2022-07-30T20:42:24.118Z,3.58
2022-07-30T20:44:53.647Z,3.17
2022-07-30T20:47:37.489Z,3.63
2022-07-30T20:50:09.626Z,3.53
2022-07-30T20:52:40.519Z,3.50
2022-07-30T20:55:16.754Z,3.75
2022-07-30T20:58:00.329Z,3.70
2022-07-30T21:00:33.668Z,3.20
2022-07-30T21:03:03.427Z,3.40
2022-07-30T21:05:30.734Z,3.05
2022-07-30T21:07:58.467Z,3.30
2022-07-30T21:10:25.544Z,3.13
2022-07-30T21:12:56.413Z,2.92
2022-07-30T21:15:26.358Z,2.78
2022-07-30T21:17:53.559Z,3.22
2022-07-30T21:20:27.271Z,3.08
2022-07-30T21:23:05.114Z,3.28
2022-07-30T21:25:33.425Z,3.05
2022-07-30T21:28:02.640Z,3.65
2022-07-30T21:30:31.395Z,3.08
2022-07-30T21:32:59.991Z,2.95
2022-07-30T21:35:32.152Z,3.47
2022-07-30T21:37:59.258Z,3.80
2022-07-30T21:40:27.800Z,3.33
2022-07-30T21:42:56.262Z,3.42
2022-07-30T21:45:23.555Z,3.33
2022-07-30T21:47:55.467Z,3.67
2022-07-30T21:50:22.876Z,3.15
2022-07-30T21:52:53.193Z,3.03
2022-07-30T21:55:21.445Z,3.10
2022-07-30T21:57:50.941Z,3.03
2022-07-30T22:00:22.385Z,2.85
2022-07-30T22:02:54.154Z,3.58
2022-07-30T22:05:21.808Z,3.17
2022-07-30T22:07:52.266Z,3.13
2022-07-30T22:10:21.298Z,3.08
2022-07-30T22:12:51.529Z,2.85
2022-07-30T22:15:19.235Z,3.25
2022-07-30T22:17:58.328Z,2.92
2022-07-30T22:20:29.191Z,3.03
2022-07-30T22:23:01.431Z,3.38
2022-07-30T22:25:39.856Z,3.47
2022-07-30T22:28:11.349Z,3.50
2022-07-30T22:30:38.763Z,4.10
2022-07-30T22:33:10.820Z,3.25
2022-07-30T22:35:41.290Z,3.17
2022-07-30T22:38:14.895Z,3.45
2022-07-30T22:40:45.369Z,3.00
2022-07-30T22:43:13.883Z,2.80
2022-07-30T22:45:48.654Z,2.90
2022-07-30T22:48:17.408Z,3.43
2022-07-30T22:50:46.562Z,3.42
2022-07-30T22:54:10.453Z,3.17
2022-07-30T22:56:15.493Z,3.40
2022-07-30T22:58:54.844Z,2.67
2022-07-30T23:01:23.001Z,3.70
2022-07-30T23:03:54.240Z,3.15
2022-07-30T23:06:30.040Z,3.40
2022-07-30T23:08:59.018Z,2.63
2022-07-30T23:11:37.281Z,2.67
2022-07-30T23:12:15.153Z,3.20
2022-07-30T23:14:11.630Z,3.35
2022-07-30T23:16:43.782Z,2.80
2022-07-30T23:19:25.238Z,3.00
2022-07-30T23:21:57.859Z,2.97
2022-07-30T23:24:33.778Z,2.78
2022-07-30T23:27:06.968Z,2.80
2022-07-30T23:29:36.631Z,2.60
2022-07-30T23:32:15.573Z,2.72
2022-07-30T23:35:04.592Z,2.65
2022-07-30T23:37:48.209Z,2.72
2022-07-30T23:40:18.890Z,2.90
2022-07-30T23:42:47.490Z,2.75
2022-07-30T23:45:15.317Z,2.90
2022-07-30T23:48:01.515Z,2.65
2022-07-30T23:50:32.936Z,2.90
2022-07-30T23:53:04.035Z,2.60
2022-07-30T23:55:32.363Z,2.60
2022-07-30T23:58:01.206Z,3.33
